ADDS METAR Data INFO
IDs: Format: Raw Decoded Include TAF

Data at: 0913 UTC 20 Jan 2018

METAR for:KSDF (Louisville Intl, KY, US)
Text:KSDF 200856Z 20007KT 10SM FEW030 05/M03 A3009 RMK AO2 SLP191 T00501033 51009
Temperature: 5.0°C ( 41°F)
Dewpoint: -3.3°C ( 26°F) [RH = 55%]
Pressure (altimeter):30.09 inches Hg (1019.0 mb) [Sea level pressure: 1019.1 mb]
Winds:from the SSW (200 degrees) at 8 MPH (7 knots; 3.6 m/s)
Visibility:10 or more sm (16+ km)
Ceiling:at least 12,000 feet AGL
Clouds: few clouds at 3000 feet AGL